createdAt,value
2017-04-20T00:00:16.751Z,-12.96
2017-04-20T00:01:16.721Z,-12.95
2017-04-20T00:02:16.700Z,-12.94
2017-04-20T00:03:16.666Z,-12.98
2017-04-20T00:04:16.638Z,-12.98
2017-04-20T00:05:16.617Z,-12.94
2017-04-20T00:06:16.588Z,-12.95
2017-04-20T00:07:16.558Z,-13.04
2017-04-20T00:08:16.533Z,-12.99
2017-04-20T00:09:16.506Z,-12.98
2017-04-20T00:10:16.475Z,-12.95
2017-04-20T00:11:16.447Z,-12.88
2017-04-20T00:12:16.425Z,-12.84
2017-04-20T00:13:16.399Z,-12.75
2017-04-20T00:14:16.373Z,-12.66
2017-04-20T00:15:16.341Z,-12.57
2017-04-20T00:16:16.315Z,-12.42
2017-04-20T00:17:16.298Z,-12.31
2017-04-20T00:18:16.266Z,-12.36
2017-04-20T00:19:16.232Z,-12.28
2017-04-20T00:20:16.207Z,-12.21
2017-04-20T00:21:16.181Z,-12.16
2017-04-20T00:22:16.150Z,-12.16
2017-04-20T00:23:15.822Z,-12.19
2017-04-20T00:24:15.797Z,-12.2
2017-04-20T00:25:16.072Z,-12.08
2017-04-20T00:26:16.044Z,-12.12
2017-04-20T00:27:16.018Z,-12.13
2017-04-20T00:28:15.996Z,-12.17
2017-04-20T00:29:15.970Z,-12.12
2017-04-20T00:30:15.935Z,-12.19
2017-04-20T00:31:15.916Z,-12.13
2017-04-20T00:32:15.882Z,-12.12
2017-04-20T00:33:15.856Z,-12.12
2017-04-20T00:34:15.829Z,-12.21
2017-04-20T00:35:15.800Z,-12.13
2017-04-20T00:36:15.783Z,-12.1
2017-04-20T00:37:15.748Z,-12.09
2017-04-20T00:38:15.725Z,-11.88
2017-04-20T00:39:15.902Z,-11.8
2017-04-20T00:40:15.671Z,-11.81
2017-04-20T00:41:15.643Z,-11.76
2017-04-20T00:42:15.317Z,-11.73
2017-04-20T00:43:15.590Z,-11.76
2017-04-20T00:44:15.565Z,-11.74
2017-04-20T00:45:15.537Z,-11.7
2017-04-20T00:46:15.512Z,-11.71
2017-04-20T00:47:15.487Z,-11.76
2017-04-20T00:48:15.469Z,-11.7
2017-04-20T00:49:15.136Z,-11.63
2017-04-20T00:50:15.104Z,-11.7
2017-04-20T00:51:15.382Z,-11.58
2017-04-20T00:52:15.353Z,-11.66
2017-04-20T00:53:15.330Z,-11.66
2017-04-20T00:54:15.298Z,-11.63
2017-04-20T00:55:15.274Z,-11.53
2017-04-20T00:56:15.248Z,-11.58
2017-04-20T00:57:15.229Z,-11.53
2017-04-20T00:58:15.195Z,-11.5
2017-04-20T00:59:15.164Z,-11.53
2017-04-20T01:00:15.144Z,-11.58
2017-04-20T01:01:14.814Z,-11.52
2017-04-20T01:02:15.088Z,-11.43
2017-04-20T01:03:15.061Z,-11.45
2017-04-20T01:04:15.036Z,-11.35
2017-04-20T01:05:15.083Z,-11.29
2017-04-20T01:06:14.988Z,-11.25
2017-04-20T01:07:14.960Z,-11.17
2017-04-20T01:08:14.933Z,-11.11
2017-04-20T01:09:14.910Z,-10.99
2017-04-20T01:10:14.879Z,-10.93
2017-04-20T01:11:14.853Z,-10.92
2017-04-20T01:12:14.831Z,-10.85
2017-04-20T01:13:14.800Z,-10.76
2017-04-20T01:14:14.479Z,-10.73
2017-04-20T01:15:14.752Z,-10.62
2017-04-20T01:16:14.727Z,-10.71
2017-04-20T01:17:14.705Z,-10.73
2017-04-20T01:18:14.674Z,-10.67
2017-04-20T01:19:14.651Z,-10.7
2017-04-20T01:20:14.623Z,-10.62
2017-04-20T01:21:14.300Z,-10.78
2017-04-20T01:22:14.271Z,-10.71
2017-04-20T01:23:14.548Z,-10.71
2017-04-20T01:24:14.517Z,-10.63
2017-04-20T01:25:14.495Z,-10.7
2017-04-20T01:26:14.476Z,-10.73
2017-04-20T01:27:14.443Z,-10.68
2017-04-20T01:28:14.420Z,-10.63
2017-04-20T01:29:14.389Z,-10.52
2017-04-20T01:30:14.369Z,-10.49
2017-04-20T01:31:14.343Z,-10.62
2017-04-20T01:32:14.315Z,-10.57
2017-04-20T01:33:14.289Z,-10.46
2017-04-20T01:34:14.262Z,-10.49
2017-04-20T01:35:14.234Z,-10.46
2017-04-20T01:36:14.211Z,-10.42
2017-04-20T01:37:14.191Z,-10.38
2017-04-20T01:38:14.161Z,-10.34
2017-04-20T01:39:14.131Z,-10.21
2017-04-20T01:40:14.104Z,-10.11
2017-04-20T01:41:14.081Z,-10.06
2017-04-20T01:42:13.760Z,-10.03
2017-04-20T01:43:14.032Z,-10.1
2017-04-20T01:44:14.006Z,-10.18
2017-04-20T01:45:13.679Z,-10.16
2017-04-20T01:46:13.956Z,-10.28
2017-04-20T01:47:13.928Z,-10.24
2017-04-20T01:48:13.907Z,-10.2
2017-04-20T01:49:13.882Z,-10.24
2017-04-20T01:50:13.854Z,-10.32
2017-04-20T01:51:13.831Z,-10.34
2017-04-20T01:52:13.807Z,-10.28
2017-04-20T01:53:13.773Z,-10.24
2017-04-20T01:54:13.750Z,-10.28
2017-04-20T01:55:13.729Z,-10.35
2017-04-20T01:56:13.704Z,-10.41
2017-04-20T01:57:13.677Z,-10.39
2017-04-20T01:58:13.646Z,-10.41
2017-04-20T01:59:13.625Z,-10.35
2017-04-20T02:00:13.597Z,-10.32
2017-04-20T02:01:13.574Z,-10.29
2017-04-20T02:02:13.549Z,-10.32
2017-04-20T02:03:13.521Z,-10.29
2017-04-20T02:04:13.504Z,-10.35
2017-04-20T02:05:13.470Z,-10.37
2017-04-20T02:06:13.444Z,-10.44
2017-04-20T02:07:13.110Z,-10.42
2017-04-20T02:08:13.389Z,-10.38
2017-04-20T02:09:13.366Z,-10.31
2017-04-20T02:10:13.340Z,-10.32
2017-04-20T02:11:13.309Z,-10.42
2017-04-20T02:12:13.282Z,-10.32
2017-04-20T02:13:13.262Z,-10.31
2017-04-20T02:14:13.235Z,-10.32
2017-04-20T02:15:12.908Z,-10.29
2017-04-20T02:16:13.184Z,-10.17
2017-04-20T02:17:13.248Z,-10.26
2017-04-20T02:18:13.133Z,-10.29
2017-04-20T02:19:13.103Z,-10.46
2017-04-20T02:20:13.076Z,-10.41
2017-04-20T02:21:13.049Z,-10.63
2017-04-20T02:22:13.025Z,-10.56
2017-04-20T02:23:12.999Z,-10.63
2017-04-20T02:24:13.002Z,-10.68
2017-04-20T02:25:12.948Z,-10.7
2017-04-20T02:26:12.920Z,-10.62
2017-04-20T02:27:12.898Z,-10.62
2017-04-20T02:28:12.866Z,-10.68
2017-04-20T02:29:12.846Z,-10.92
2017-04-20T02:30:12.819Z,-11.1
2017-04-20T02:31:12.794Z,-11.35
2017-04-20T02:32:12.776Z,-11.55
2017-04-20T02:33:12.743Z,-11.63
2017-04-20T02:34:12.712Z,-11.6
2017-04-20T02:35:12.682Z,-11.74
2017-04-20T02:36:12.659Z,-11.82
2017-04-20T02:37:12.634Z,-11.76
2017-04-20T02:38:12.608Z,-11.7
2017-04-20T02:39:12.580Z,-11.6
2017-04-20T02:40:12.550Z,-11.53
2017-04-20T02:41:12.227Z,-11.53
2017-04-20T02:42:12.501Z,-11.52
2017-04-20T02:43:12.473Z,-11.61
2017-04-20T02:44:12.453Z,-11.69
2017-04-20T02:45:12.422Z,-11.7
2017-04-20T02:46:12.393Z,-11.8
2017-04-20T02:47:12.386Z,-12.03
2017-04-20T02:48:12.344Z,-11.98
2017-04-20T02:49:12.321Z,-11.98
2017-04-20T02:50:12.286Z,-12.03
2017-04-20T02:51:12.264Z,-12.08
2017-04-20T02:52:12.234Z,-12.06
2017-04-20T02:53:12.206Z,-12
2017-04-20T02:54:12.183Z,-11.98
2017-04-20T02:55:12.150Z,-11.82
2017-04-20T02:56:11.830Z,-11.92
2017-04-20T02:57:12.100Z,-11.94
2017-04-20T02:58:11.769Z,-11.9
2017-04-20T02:59:12.046Z,-11.91
2017-04-20T03:00:11.729Z,-11.92
2017-04-20T03:01:11.990Z,-12.03
2017-04-20T03:02:11.966Z,-11.87
2017-04-20T03:03:11.641Z,-11.98
2017-04-20T03:04:11.618Z,-11.99
2017-04-20T03:05:11.883Z,-12.03
2017-04-20T03:06:11.858Z,-12.08
2017-04-20T03:07:11.829Z,-12.2
2017-04-20T03:08:11.804Z,-12.17
2017-04-20T03:09:11.779Z,-12.12
2017-04-20T03:10:11.760Z,-12.06
2017-04-20T03:11:11.720Z,-11.99
2017-04-20T03:12:11.698Z,-12
2017-04-20T03:13:11.674Z,-12.06
2017-04-20T03:14:11.645Z,-12.09
2017-04-20T03:15:11.617Z,-12.12
2017-04-20T03:16:11.290Z,-12.13
2017-04-20T03:17:11.564Z,-12.1
2017-04-20T03:18:11.537Z,-12.1
2017-04-20T03:19:11.510Z,-12.06
2017-04-20T03:20:11.178Z,-12
2017-04-20T03:21:11.460Z,-12.09
2017-04-20T03:22:10.828Z,-12.23
2017-04-20T03:23:11.405Z,-12.34
2017-04-20T03:24:11.376Z,-12.45
2017-04-20T03:25:11.344Z,-12.49
2017-04-20T03:26:11.322Z,-12.41
2017-04-20T03:27:11.296Z,-12.45
2017-04-20T03:28:11.268Z,-12.41
2017-04-20T03:29:11.245Z,-12.42
2017-04-20T03:30:11.209Z,-12.39
2017-04-20T03:31:11.187Z,-12.41
2017-04-20T03:32:11.156Z,-12.34
2017-04-20T03:33:11.130Z,-12.23
2017-04-20T03:34:11.167Z,-12.17
2017-04-20T03:35:11.078Z,-12.08
2017-04-20T03:36:11.050Z,-12
2017-04-20T03:37:11.027Z,-12.03
2017-04-20T03:38:10.999Z,-12.1
2017-04-20T03:39:10.969Z,-12.17
2017-04-20T03:40:10.639Z,-12.16
2017-04-20T03:41:10.914Z,-12.16
2017-04-20T03:42:10.586Z,-12.06
2017-04-20T03:43:10.861Z,-12.02
2017-04-20T03:44:10.835Z,-11.94
2017-04-20T03:45:10.810Z,-11.98
2017-04-20T03:46:10.785Z,-11.9
2017-04-20T03:47:10.755Z,-11.8
2017-04-20T03:48:10.427Z,-11.76
2017-04-20T03:49:10.706Z,-11.7
2017-04-20T03:50:10.677Z,-11.63
2017-04-20T03:51:10.648Z,-11.52
2017-04-20T03:52:10.624Z,-11.35
2017-04-20T03:53:10.594Z,-11.34
2017-04-20T03:54:10.570Z,-11.34
2017-04-20T03:55:10.551Z,-11.39
2017-04-20T03:56:10.523Z,-11.37
2017-04-20T03:57:10.188Z,-11.31
2017-04-20T03:58:10.467Z,-11.28
2017-04-20T03:59:10.440Z,-11.34
2017-04-20T04:00:10.413Z,-11.32
2017-04-20T04:01:10.388Z,-11.39
2017-04-20T04:02:10.057Z,-11.34
2017-04-20T04:03:10.342Z,-11.38
2017-04-20T04:04:10.309Z,-11.43
2017-04-20T04:05:10.283Z,-11.38
2017-04-20T04:06:10.253Z,-11.42
2017-04-20T04:07:10.229Z,-11.43
2017-04-20T04:08:10.474Z,-11.46
2017-04-20T04:09:10.182Z,-11.7
2017-04-20T04:10:10.146Z,-11.7
2017-04-20T04:11:10.123Z,-11.76
2017-04-20T04:12:10.097Z,-11.91
2017-04-20T04:13:10.064Z,-11.88
2017-04-20T04:14:10.045Z,-11.91
2017-04-20T04:15:10.016Z,-12.08
2017-04-20T04:16:09.990Z,-12.03
2017-04-20T04:17:10.073Z,-12.09
2017-04-20T04:18:09.636Z,-12.09
2017-04-20T04:19:09.907Z,-12.2
2017-04-20T04:20:09.583Z,-12.09
2017-04-20T04:21:09.854Z,-12.06
2017-04-20T04:22:09.829Z,-11.94
2017-04-20T04:23:09.807Z,-11.85
2017-04-20T04:24:09.777Z,-11.77
2017-04-20T04:25:09.748Z,-11.67
2017-04-20T04:26:09.421Z,-11.66
2017-04-20T04:27:09.698Z,-11.53
2017-04-20T04:28:09.672Z,-11.56
2017-04-20T04:29:09.640Z,-11.55
2017-04-20T04:30:09.623Z,-11.45
2017-04-20T04:31:09.589Z,-11.38
2017-04-20T04:32:09.263Z,-11.34
2017-04-20T04:33:09.238Z,-11.32
2017-04-20T04:34:09.510Z,-11.37
2017-04-20T04:35:09.485Z,-11.24
2017-04-20T04:36:09.463Z,-11.13
2017-04-20T04:37:09.437Z,-11.09
2017-04-20T04:38:09.410Z,-10.96
2017-04-20T04:39:09.381Z,-10.85
2017-04-20T04:40:09.360Z,-10.92
2017-04-20T04:41:09.332Z,-10.89
2017-04-20T04:42:09.309Z,-10.86
2017-04-20T04:43:09.281Z,-10.8
2017-04-20T04:44:09.255Z,-10.67
2017-04-20T04:45:09.229Z,-10.74
2017-04-20T04:46:09.204Z,-10.62
2017-04-20T04:47:09.172Z,-10.55
2017-04-20T04:48:09.156Z,-10.52
2017-04-20T04:49:09.123Z,-10.49
2017-04-20T04:50:09.099Z,-10.46
2017-04-20T04:51:09.075Z,-10.53
2017-04-20T04:52:09.047Z,-10.55
2017-04-20T04:53:09.017Z,-10.52
2017-04-20T04:54:08.994Z,-10.59
2017-04-20T04:55:08.973Z,-10.47
2017-04-20T04:56:08.945Z,-10.52
2017-04-20T04:57:08.619Z,-10.47
2017-04-20T04:58:08.896Z,-10.47
2017-04-20T04:59:08.873Z,-10.46
2017-04-20T05:00:08.852Z,-10.5
2017-04-20T05:01:08.814Z,-10.57
2017-04-20T05:02:08.791Z,-10.62
2017-04-20T05:03:08.763Z,-10.67
2017-04-20T05:04:08.748Z,-10.71
2017-04-20T05:05:08.714Z,-10.76
2017-04-20T05:06:08.385Z,-10.77
2017-04-20T05:07:08.664Z,-10.86
2017-04-20T05:08:08.839Z,-10.77
2017-04-20T05:09:08.614Z,-10.89
2017-04-20T05:10:08.599Z,-10.86
2017-04-20T05:11:08.564Z,-10.86
2017-04-20T05:12:08.534Z,-10.9
2017-04-20T05:13:08.504Z,-10.95
2017-04-20T05:14:08.484Z,-11
2017-04-20T05:15:08.457Z,-11.13
2017-04-20T05:16:08.425Z,-11.13
2017-04-20T05:17:08.403Z,-11.22
2017-04-20T05:18:08.381Z,-11.34
2017-04-20T05:19:08.350Z,-11.31
2017-04-20T05:20:07.723Z,-11.34
2017-04-20T05:21:08.296Z,-11.35
2017-04-20T05:22:07.974Z,-11.32
2017-04-20T05:23:08.248Z,-11.34
2017-04-20T05:24:08.220Z,-11.32
2017-04-20T05:25:07.889Z,-11.31
2017-04-20T05:26:07.866Z,-11.31
2017-04-20T05:27:08.137Z,-11.35
2017-04-20T05:28:08.114Z,-11.38
2017-04-20T05:29:08.097Z,-11.32
2017-04-20T05:30:08.063Z,-11.24
2017-04-20T05:31:08.040Z,-11.22
2017-04-20T05:32:08.012Z,-11.1
2017-04-20T05:33:08.027Z,-11.13
2017-04-20T05:34:07.654Z,-11.19
2017-04-20T05:35:07.937Z,-11.11
2017-04-20T05:36:07.910Z,-11.09
2017-04-20T05:37:07.883Z,-11.02
2017-04-20T05:38:07.554Z,-10.99
2017-04-20T05:39:07.836Z,-10.96
2017-04-20T05:40:07.505Z,-11
2017-04-20T05:41:07.782Z,-11.1
2017-04-20T05:42:07.758Z,-11.13
2017-04-20T05:43:07.729Z,-11.19
2017-04-20T05:44:07.698Z,-11.24
2017-04-20T05:45:07.679Z,-11.32
2017-04-20T05:46:07.652Z,-11.34
2017-04-20T05:47:07.624Z,-11.38
2017-04-20T05:48:07.602Z,-11.32
2017-04-20T05:49:07.572Z,-11.31
2017-04-20T05:50:07.752Z,-11.27
2017-04-20T05:51:07.522Z,-11.2
2017-04-20T05:52:07.491Z,-11.2
2017-04-20T05:53:07.467Z,-11.1
2017-04-20T05:54:07.440Z,-11.02
2017-04-20T05:55:07.421Z,-11.02
2017-04-20T05:56:07.399Z,-10.92
2017-04-20T05:57:07.375Z,-10.98
2017-04-20T05:58:07.342Z,-10.81
2017-04-20T05:59:07.013Z,-10.77
2017-04-20T06:00:07.290Z,-10.73
2017-04-20T06:01:07.271Z,-10.7
2017-04-20T06:02:07.239Z,-10.6
2017-04-20T06:03:07.214Z,-10.56
2017-04-20T06:04:07.185Z,-10.6
2017-04-20T06:05:07.166Z,-10.6
2017-04-20T06:06:07.140Z,-10.47
2017-04-20T06:07:07.112Z,-10.49
2017-04-20T06:08:07.090Z,-10.37
2017-04-20T06:09:07.067Z,-10.32
2017-04-20T06:10:07.059Z,-10.34
2017-04-20T06:11:07.017Z,-10.34
2017-04-20T06:12:06.991Z,-10.28
2017-04-20T06:13:06.967Z,-10.53
2017-04-20T06:14:06.943Z,-10.52
2017-04-20T06:15:06.939Z,-10.5
2017-04-20T06:16:06.892Z,-10.52
2017-04-20T06:17:06.868Z,-10.57
2017-04-20T06:18:06.842Z,-10.68
2017-04-20T06:19:06.824Z,-10.74
2017-04-20T06:20:06.793Z,-10.77
2017-04-20T06:21:06.766Z,-10.68
2017-04-20T06:22:06.762Z,-10.81
2017-04-20T06:23:06.418Z,-10.88
2017-04-20T06:24:06.690Z,-10.98
2017-04-20T06:25:06.664Z,-10.98
2017-04-20T06:26:06.641Z,-10.92
2017-04-20T06:27:06.611Z,-10.99
2017-04-20T06:28:06.283Z,-10.96
2017-04-20T06:29:06.257Z,-10.99
2017-04-20T06:30:06.537Z,-11.11
2017-04-20T06:31:06.508Z,-11.13
2017-04-20T06:32:06.486Z,-11.11
2017-04-20T06:33:06.455Z,-11.09
2017-04-20T06:34:06.431Z,-10.96
2017-04-20T06:35:06.107Z,-10.96
2017-04-20T06:36:06.380Z,-10.96
2017-04-20T06:37:06.350Z,-11.06
2017-04-20T06:38:06.326Z,-11.09
2017-04-20T06:39:06.299Z,-11.17
2017-04-20T06:40:06.369Z,-11.24
2017-04-20T06:41:06.249Z,-11.14
2017-04-20T06:42:05.922Z,-11.22
2017-04-20T06:43:05.891Z,-11.09
2017-04-20T06:44:06.166Z,-11.04
2017-04-20T06:45:06.142Z,-11.02
2017-04-20T06:46:06.118Z,-10.96
2017-04-20T06:47:05.800Z,-10.8
2017-04-20T06:48:06.069Z,-10.89
2017-04-20T06:49:06.043Z,-10.77
2017-04-20T06:50:05.716Z,-10.76
2017-04-20T06:51:05.385Z,-10.76
2017-04-20T06:52:05.964Z,-10.76
2017-04-20T06:53:05.940Z,-10.73
2017-04-20T06:54:05.608Z,-10.74
2017-04-20T06:55:05.891Z,-10.77
2017-04-20T06:56:05.861Z,-10.7
2017-04-20T06:57:05.836Z,-10.7
2017-04-20T06:58:05.808Z,-10.56
2017-04-20T06:59:05.787Z,-10.47
2017-04-20T07:00:05.761Z,-10.34
2017-04-20T07:01:05.734Z,-10.31
2017-04-20T07:02:05.713Z,-10.41
2017-04-20T07:03:05.687Z,-10.37
2017-04-20T07:04:05.361Z,-10.41
2017-04-20T07:05:05.336Z,-10.39
2017-04-20T07:06:05.614Z,-10.32
2017-04-20T07:07:05.585Z,-10.42
2017-04-20T07:08:05.558Z,-10.49
2017-04-20T07:09:05.536Z,-10.46
2017-04-20T07:10:05.209Z,-10.55
2017-04-20T07:11:05.484Z,-10.47
2017-04-20T07:12:05.460Z,-10.49
2017-04-20T07:13:05.131Z,-10.46
2017-04-20T07:14:05.413Z,-10.46
2017-04-20T07:15:05.383Z,-10.49
2017-04-20T07:16:05.356Z,-10.44
2017-04-20T07:17:05.327Z,-10.47
2017-04-20T07:18:05.306Z,-10.56
2017-04-20T07:19:05.277Z,-10.6
2017-04-20T07:20:05.281Z,-10.68
2017-04-20T07:21:05.278Z,-10.71
2017-04-20T07:22:04.903Z,-10.62
2017-04-20T07:23:05.172Z,-10.67
2017-04-20T07:24:05.155Z,-10.67
2017-04-20T07:25:05.124Z,-10.76
2017-04-20T07:26:05.100Z,-10.78
2017-04-20T07:27:05.074Z,-10.89
2017-04-20T07:28:05.059Z,-10.85
2017-04-20T07:29:04.781Z,-10.95
2017-04-20T07:30:04.996Z,-10.92
2017-04-20T07:31:04.979Z,-10.95
2017-04-20T07:32:04.947Z,-10.95
2017-04-20T07:33:04.921Z,-10.95
2017-04-20T07:34:04.892Z,-10.92
2017-04-20T07:35:04.575Z,-11
2017-04-20T07:36:04.847Z,-10.95
2017-04-20T07:37:04.216Z,-10.85
2017-04-20T07:38:04.791Z,-10.88
2017-04-20T07:39:04.466Z,-10.9
2017-04-20T07:40:04.439Z,-10.86
2017-04-20T07:41:04.415Z,-10.89
2017-04-20T07:42:04.690Z,-10.9
2017-04-20T07:43:04.665Z,-10.98
2017-04-20T07:44:04.337Z,-11.04
2017-04-20T07:45:04.312Z,-11
2017-04-20T07:46:04.721Z,-11
2017-04-20T07:47:04.260Z,-11.06
2017-04-20T07:48:04.536Z,-10.95
2017-04-20T07:49:04.206Z,-10.9
2017-04-20T07:50:04.182Z,-10.95
2017-04-20T07:51:04.458Z,-10.85
2017-04-20T07:52:04.135Z,-10.76
2017-04-20T07:53:04.107Z,-10.68
2017-04-20T07:54:04.080Z,-10.5
2017-04-20T07:55:04.057Z,-10.5
2017-04-20T07:56:04.030Z,-10.34
2017-04-20T07:57:04.007Z,-10.26
2017-04-20T07:58:04.284Z,-10.18
2017-04-20T07:59:03.957Z,-10.03
2017-04-20T08:00:04.235Z,-9.88
2017-04-20T08:01:03.910Z,-9.75
2017-04-20T08:02:04.187Z,-9.54
2017-04-20T08:03:04.164Z,-9.57
2017-04-20T08:04:03.837Z,-9.3
2017-04-20T08:05:04.116Z,-9.2
2017-04-20T08:06:03.788Z,-9.1
2017-04-20T08:07:03.776Z,-8.94
2017-04-20T08:08:03.743Z,-8.91
2017-04-20T08:09:03.721Z,-8.71
2017-04-20T08:10:04.003Z,-8.74
2017-04-20T08:11:03.979Z,-8.68
2017-04-20T08:12:03.954Z,-8.47
2017-04-20T08:13:03.641Z,-8.55
2017-04-20T08:14:03.905Z,-8.47
2017-04-20T08:15:03.885Z,-8.21
2017-04-20T08:16:03.864Z,-8.13
2017-04-20T08:17:03.844Z,-8.07
2017-04-20T08:18:03.516Z,-7.87
2017-04-20T08:19:03.798Z,-7.74
2017-04-20T08:20:03.937Z,-7.64
2017-04-20T08:21:03.447Z,-7.53
2017-04-20T08:22:03.735Z,-7.42
2017-04-20T08:23:03.710Z,-7.37
2017-04-20T08:24:03.689Z,-7.2
2017-04-20T08:25:03.365Z,-7.14
2017-04-20T08:26:03.342Z,-6.89
2017-04-20T08:27:03.325Z,-6.74
2017-04-20T08:28:03.668Z,-6.71
2017-04-20T08:29:03.584Z,-6.47
2017-04-20T08:30:03.564Z,-6.26
2017-04-20T08:31:03.537Z,-6.02
2017-04-20T08:32:03.222Z,-5.96
2017-04-20T08:33:03.500Z,-5.75
2017-04-20T08:34:03.178Z,-5.71
2017-04-20T08:35:03.462Z,-5.57
2017-04-20T08:36:03.148Z,-5.62
2017-04-20T08:37:03.127Z,-5.48
2017-04-20T08:38:03.401Z,-5.33
2017-04-20T08:39:03.382Z,-5.33
2017-04-20T08:40:03.366Z,-5.28
2017-04-20T08:41:03.349Z,-5.33
2017-04-20T08:42:03.325Z,-5.2
2017-04-20T08:43:03.008Z,-5.11
2017-04-20T08:44:03.293Z,-5.06
2017-04-20T08:45:03.267Z,-5.02
2017-04-20T08:46:03.272Z,-4.94
2017-04-20T08:47:02.931Z,-4.76
2017-04-20T08:48:02.913Z,-4.79
2017-04-20T08:49:03.194Z,-4.56
2017-04-20T08:50:03.176Z,-4.46
2017-04-20T08:51:03.156Z,-4.44
2017-04-20T08:52:03.142Z,-4.23
2017-04-20T08:53:03.125Z,-4.16
2017-04-20T08:54:03.102Z,-4.15
2017-04-20T08:55:03.092Z,-3.99
2017-04-20T08:56:03.072Z,-3.97
2017-04-20T08:57:03.060Z,-3.99
2017-04-20T08:58:02.736Z,-3.99
2017-04-20T08:59:02.412Z,-4.06
2017-04-20T09:00:02.999Z,-4.1
2017-04-20T09:01:02.379Z,-4.1
2017-04-20T09:02:02.964Z,-4.12
2017-04-20T09:03:02.946Z,-4.23
2017-04-20T09:04:02.627Z,-4.28
2017-04-20T09:05:02.913Z,-4.22
2017-04-20T09:06:02.895Z,-4.28
2017-04-20T09:07:02.872Z,-4.28
2017-04-20T09:08:02.861Z,-4.37
2017-04-20T09:09:02.536Z,-4.27
2017-04-20T09:10:02.821Z,-4.34
2017-04-20T09:11:02.805Z,-4.36
2017-04-20T09:12:02.782Z,-4.3
2017-04-20T09:13:02.767Z,-4.37
2017-04-20T09:14:02.448Z,-4.38
2017-04-20T09:15:02.726Z,-4.41
2017-04-20T09:16:02.708Z,-4.4
2017-04-20T09:17:02.689Z,-4.3
2017-04-20T09:18:02.393Z,-4.34
2017-04-20T09:19:02.653Z,-4.4
2017-04-20T09:20:02.636Z,-4.38
2017-04-20T09:21:02.624Z,-4.46
2017-04-20T09:22:02.297Z,-4.46
2017-04-20T09:23:02.582Z,-4.49
2017-04-20T09:24:02.261Z,-4.45
2017-04-20T09:25:02.544Z,-4.38
2017-04-20T09:26:02.221Z,-4.33
2017-04-20T09:27:02.202Z,-4.3
2017-04-20T09:28:02.487Z,-4.16
2017-04-20T09:29:02.470Z,-4.27
2017-04-20T09:30:02.448Z,-4.27
2017-04-20T09:31:02.129Z,-4.27
2017-04-20T09:32:02.416Z,-4.17
2017-04-20T09:33:02.398Z,-4.09
2017-04-20T09:34:02.378Z,-3.99
2017-04-20T09:35:02.364Z,-3.99
2017-04-20T09:36:02.348Z,-3.79
2017-04-20T09:37:02.324Z,-3.72
2017-04-20T09:38:02.306Z,-3.57
2017-04-20T09:39:01.998Z,-3.3
2017-04-20T09:40:02.281Z,-3.34
2017-04-20T09:41:02.269Z,-3.34
2017-04-20T09:42:02.241Z,-3.21
2017-04-20T09:43:02.229Z,-3.13
2017-04-20T09:44:02.208Z,-3
2017-04-20T09:45:02.191Z,-2.68
2017-04-20T09:46:02.178Z,-2.61
2017-04-20T09:47:02.159Z,-2.43
2017-04-20T09:48:01.846Z,-2.64
2017-04-20T09:49:02.127Z,-2.8
2017-04-20T09:50:02.113Z,-2.93
2017-04-20T09:51:02.100Z,-2.97
2017-04-20T09:52:02.082Z,-3.13
2017-04-20T09:53:02.064Z,-3.25
2017-04-20T09:54:01.747Z,-3.15
2017-04-20T09:55:02.038Z,-3.33
2017-04-20T09:56:01.712Z,-3.36
2017-04-20T09:57:01.998Z,-3.37
2017-04-20T09:58:01.980Z,-3.31
2017-04-20T09:59:01.962Z,-3.26
2017-04-20T10:00:01.986Z,-3.31
2017-04-20T10:01:01.927Z,-3.37
2017-04-20T10:02:01.909Z,-3.4
2017-04-20T10:03:01.892Z,-3.57
2017-04-20T10:04:01.876Z,-3.65
2017-04-20T10:05:01.558Z,-3.7
2017-04-20T10:06:01.849Z,-3.7
2017-04-20T10:07:01.824Z,-3.68
2017-04-20T10:08:01.823Z,-3.52
2017-04-20T10:09:01.794Z,-3.54
2017-04-20T10:10:01.473Z,-3.52
2017-04-20T10:11:01.458Z,-3.49
2017-04-20T10:12:01.740Z,-3.39
2017-04-20T10:13:01.721Z,-3.28
2017-04-20T10:14:01.710Z,-3.16
2017-04-20T10:15:01.690Z,-3.13
2017-04-20T10:16:01.371Z,-3.25
2017-04-20T10:17:01.670Z,-3.43
2017-04-20T10:18:01.331Z,-3.4
2017-04-20T10:19:01.319Z,-3.54
2017-04-20T10:20:01.609Z,-3.57
2017-04-20T10:21:01.281Z,-3.58
2017-04-20T10:22:01.569Z,-3.43
2017-04-20T10:23:01.254Z,-3.33
2017-04-20T10:24:00.935Z,-3.21
2017-04-20T10:25:01.218Z,-3.16
2017-04-20T10:26:01.204Z,-2.8
2017-04-20T10:27:01.186Z,-2.71
2017-04-20T10:28:01.169Z,-2.48
2017-04-20T10:29:00.853Z,-2.29
2017-04-20T10:30:01.159Z,-2.26
2017-04-20T10:31:01.124Z,-2.01
2017-04-20T10:32:01.112Z,-1.88
2017-04-20T10:33:01.135Z,-1.67
2017-04-20T10:34:01.083Z,-1.75
2017-04-20T10:35:00.766Z,-1.56
2017-04-20T10:36:01.355Z,-1.38
2017-04-20T10:37:01.039Z,-1.35
2017-04-20T10:38:01.025Z,-1.28
2017-04-20T10:39:01.009Z,-1.18
2017-04-20T10:40:00.997Z,-1.11
2017-04-20T10:41:00.984Z,-1.15
2017-04-20T10:42:01.286Z,-1.23
2017-04-20T10:43:00.655Z,-1.29
2017-04-20T10:44:00.638Z,-1.53
2017-04-20T10:45:00.620Z,-1.49
2017-04-20T10:46:00.907Z,-1.56
2017-04-20T10:47:00.891Z,-1.67
2017-04-20T10:48:00.878Z,-1.67
2017-04-20T10:49:00.863Z,-1.92
2017-04-20T10:50:00.849Z,-2.21
2017-04-20T10:51:00.526Z,-2.25
2017-04-20T10:52:00.812Z,-2.37
2017-04-20T10:53:00.496Z,-2.41
2017-04-20T10:54:00.786Z,-2.64
2017-04-20T10:55:00.464Z,-2.65
2017-04-20T10:56:00.754Z,-2.55
2017-04-20T10:57:00.434Z,-2.53
2017-04-20T10:58:01.126Z,-2.62
2017-04-20T10:59:00.704Z,-2.89
2017-04-20T11:00:00.988Z,-3.15
2017-04-20T11:01:00.670Z,-3.15
2017-04-20T11:02:00.656Z,-3.19
2017-04-20T11:03:00.936Z,-3.21
2017-04-20T11:04:00.625Z,-3.26
2017-04-20T11:05:00.909Z,-3.23
2017-04-20T11:06:00.583Z,-3.26
2017-04-20T11:07:00.571Z,-3.22
2017-04-20T11:08:00.551Z,-3.28
2017-04-20T11:09:00.530Z,-3.33
2017-04-20T11:10:00.816Z,-3.28
2017-04-20T11:11:00.500Z,-3.25
2017-04-20T11:12:00.480Z,-3.16
2017-04-20T11:13:00.464Z,-3.1
2017-04-20T11:14:00.448Z,-3.12
2017-04-20T11:15:00.728Z,-2.98
2017-04-20T11:16:00.416Z,-2.97
2017-04-20T11:17:00.419Z,-2.93
2017-04-20T11:18:00.381Z,-2.97
2017-04-20T11:19:00.365Z,-3.13
2017-04-20T11:20:00.345Z,-3.08
2017-04-20T11:21:00.633Z,-3.07
2017-04-20T11:22:00.314Z,-2.97
2017-04-20T11:23:00.462Z,-2.95
2017-04-20T11:24:00.580Z,-2.98
2017-04-20T11:25:00.263Z,-2.86
2017-04-20T11:26:00.560Z,-2.8
2017-04-20T11:27:00.532Z,-2.82
2017-04-20T11:28:00.514Z,-3.07
2017-04-20T11:29:00.196Z,-3.05
2017-04-20T11:30:00.479Z,-3.01
2017-04-20T11:31:00.461Z,-2.9
2017-04-20T11:32:00.449Z,-2.8
2017-04-20T11:33:00.429Z,-2.77
2017-04-20T11:34:00.414Z,-2.84
2017-04-20T11:35:00.095Z,-3.16
2017-04-20T11:36:00.079Z,-3.21
2017-04-20T11:37:00.062Z,-3.36
2017-04-20T11:37:59.740Z,-3.33
2017-04-20T11:39:00.030Z,-3.28
2017-04-20T11:40:00.159Z,-3.08
2017-04-20T11:40:59.696Z,-3.12
2017-04-20T11:42:00.282Z,-3.07
2017-04-20T11:43:00.262Z,-3.1
2017-04-20T11:43:59.952Z,-3.37
2017-04-20T11:45:00.230Z,-3.43
2017-04-20T11:46:00.215Z,-3.49
2017-04-20T11:46:59.894Z,-3.77
2017-04-20T11:48:00.180Z,-4.06
2017-04-20T11:48:59.861Z,-4.26
2017-04-20T11:49:59.840Z,-4.33
2017-04-20T11:50:59.827Z,-4.41
2017-04-20T11:51:59.809Z,-4.87
2017-04-20T11:52:59.487Z,-4.97
2017-04-20T11:53:59.769Z,-4.81
2017-04-20T11:54:59.752Z,-4.72
2017-04-20T11:55:59.732Z,-4.81
2017-04-20T11:56:59.756Z,-4.97
2017-04-20T11:57:59.700Z,-4.94
2017-04-20T11:58:59.679Z,-4.87
2017-04-20T11:59:59.661Z,-4.79
2017-04-20T12:00:59.944Z,-4.99
2017-04-20T12:01:59.623Z,-5.06
2017-04-20T12:02:59.907Z,-5.03
2017-04-20T12:03:59.589Z,-5.08
2017-04-20T12:04:59.577Z,-4.91
2017-04-20T12:05:59.550Z,-4.88
2017-04-20T12:06:59.234Z,-4.69
2017-04-20T12:07:59.514Z,-4.7
2017-04-20T12:08:59.493Z,-4.83
2017-04-20T12:09:59.779Z,-4.81
2017-04-20T12:10:59.454Z,-4.72
2017-04-20T12:11:59.443Z,-4.69
2017-04-20T12:12:59.235Z,-4.65
2017-04-20T12:13:59.404Z,-4.26
2017-04-20T12:14:59.386Z,-4.1
2017-04-20T12:15:59.063Z,-3.91
2017-04-20T12:16:59.645Z,-3.64
2017-04-20T12:17:59.634Z,-3.49
2017-04-20T12:18:59.616Z,-3.51
2017-04-20T12:19:59.598Z,-3.61
2017-04-20T12:20:59.584Z,-3.84
2017-04-20T12:21:59.565Z,-3.98
2017-04-20T12:22:59.246Z,-3.97
2017-04-20T12:23:59.225Z,-4.04
2017-04-20T12:24:59.208Z,-4.01
2017-04-20T12:25:59.193Z,-4.12
2017-04-20T12:26:59.477Z,-4.41
2017-04-20T12:27:59.154Z,-4.55
2017-04-20T12:28:59.136Z,-4.54
2017-04-20T12:29:59.119Z,-4.55
2017-04-20T12:30:59.103Z,-4.41
2017-04-20T12:31:59.090Z,-4.44
2017-04-20T12:32:59.374Z,-4.27
2017-04-20T12:33:59.350Z,-4.38
2017-04-20T12:34:59.330Z,-4.31
2017-04-20T12:35:59.315Z,-4.55
2017-04-20T12:36:59.298Z,-4.36
2017-04-20T12:37:59.277Z,-4.38
2017-04-20T12:38:59.260Z,-4.33
2017-04-20T12:39:58.938Z,-4.3